Terminal Aerodrome Forecast
Issued by NWS

Home | Current Version | Previous Version | Text Only | Print | Product List | Glossary On
Versions: 1 2 3 4 5 6 7 8 9 10 11 12 13 14 15 16 17 18 19 20 21 22 23 24 25 26 27 28 29 30 31 32 33 34 35
000
FTAK31 PANC 301139
TAFASN
TAF
PASN 301139Z 3012/3112 11017G24KT 4SM -RA BR BKN006 OVC014
     FM302000 09024G34KT 5SM -RA BR SCT006 OVC014
     FM310200 08036G48KT 2SM -RA BR OVC006
     FM310800 07028G40KT 3SM -RA BR OVC006=

USA.gov is the U.S. government's official web portal to all federal, state and local government web resources and services.